createdAt,value
2019-02-12T00:00:48.020Z,98107.59
2019-02-12T00:02:50.224Z,98107.59
2019-02-12T00:04:51.808Z,98104.63
2019-02-12T00:06:53.402Z,98103.81
2019-02-12T00:08:55.012Z,98108.09
2019-02-12T00:10:56.619Z,98108.55
2019-02-12T00:12:58.253Z,98110.31
2019-02-12T00:14:59.868Z,98110.31
2019-02-12T00:17:01.467Z,98122.20
2019-02-12T00:19:03.071Z,98118.78
2019-02-12T00:21:09.192Z,98128.62
2019-02-12T00:23:06.362Z,98129.47
2019-02-12T00:25:07.962Z,98129.48
2019-02-12T00:27:09.571Z,98129.47
2019-02-12T00:29:11.169Z,98131.55
2019-02-12T00:31:12.773Z,98135.00
2019-02-12T00:33:14.400Z,98143.11
2019-02-12T00:35:15.997Z,98144.85
2019-02-12T00:37:17.603Z,98137.20
2019-02-12T00:39:19.216Z,98143.16
2019-02-12T00:41:20.804Z,98152.89
2019-02-12T00:43:22.401Z,98145.53
2019-02-12T00:45:24.045Z,98146.34
2019-02-12T00:47:25.646Z,98148.05
2019-02-12T00:49:27.259Z,98146.39
2019-02-12T00:51:28.854Z,98148.10
2019-02-12T00:53:30.449Z,98146.86
2019-02-12T00:55:32.051Z,98150.27
2019-02-12T00:57:33.695Z,98149.02
2019-02-12T00:59:35.312Z,98146.07
2019-02-12T01:01:36.924Z,98150.29
2019-02-12T01:03:38.543Z,98158.86
2019-02-12T01:05:40.141Z,98145.66
2019-02-12T01:07:41.743Z,98144.44
2019-02-12T01:09:43.369Z,98145.28
2019-02-12T01:11:44.966Z,98137.17
2019-02-12T01:13:46.561Z,98141.04
2019-02-12T01:15:48.149Z,98141.05
2019-02-12T01:17:49.800Z,98138.97
2019-02-12T01:19:51.406Z,98141.03
2019-02-12T01:21:53.020Z,98126.55
2019-02-12T01:23:54.618Z,98134.19
2019-02-12T01:25:56.227Z,98137.17
2019-02-12T01:27:57.840Z,98134.66
2019-02-12T01:29:59.452Z,98137.62
2019-02-12T01:32:01.093Z,98141.02
2019-02-12T01:34:02.696Z,98143.58
2019-02-12T01:36:04.279Z,98135.07
2019-02-12T01:38:05.927Z,98136.29
2019-02-12T01:40:07.526Z,98146.07
2019-02-12T01:42:09.150Z,98140.60
2019-02-12T01:44:10.764Z,98143.16
2019-02-12T01:46:12.361Z,98138.06
2019-02-12T01:48:14.000Z,98141.91
2019-02-12T01:50:15.591Z,98144.52
2019-02-12T01:52:17.218Z,98137.28
2019-02-12T01:54:18.817Z,98139.82
2019-02-12T01:56:20.414Z,98143.72
2019-02-12T01:58:22.068Z,98143.39
2019-02-12T02:00:23.729Z,98105.06
2019-02-12T02:02:25.329Z,98141.75
2019-02-12T02:04:26.982Z,98140.95
2019-02-12T02:06:28.592Z,98145.22
2019-02-12T02:08:30.205Z,98143.56
2019-02-12T02:10:31.843Z,98144.84
2019-02-12T02:12:34.302Z,98148.67
2019-02-12T02:14:35.894Z,98149.56
2019-02-12T02:16:37.543Z,98141.91
2019-02-12T02:18:39.160Z,98151.70
2019-02-12T02:20:40.759Z,98149.19
2019-02-12T02:22:42.408Z,98135.06
2019-02-12T02:24:44.020Z,98143.98
2019-02-12T02:26:45.622Z,98143.56
2019-02-12T02:28:47.235Z,98155.75
2019-02-12T02:30:48.848Z,98162.61
2019-02-12T02:32:50.508Z,98160.16
2019-02-12T02:34:52.111Z,98164.42
2019-02-12T02:36:53.710Z,98168.19
2019-02-12T02:38:55.307Z,98172.41
2019-02-12T02:40:56.905Z,98171.17
2019-02-12T02:42:58.556Z,98174.58
2019-02-12T02:45:00.264Z,98161.81
2019-02-12T02:47:01.826Z,98166.06
2019-02-12T02:49:03.424Z,98173.72
2019-02-12T02:51:05.021Z,98176.27
2019-02-12T02:53:06.672Z,98183.37
2019-02-12T02:55:08.269Z,98185.91
2019-02-12T02:57:09.866Z,98193.10
2019-02-12T02:59:11.501Z,98168.40
2019-02-12T03:01:13.130Z,98193.52
2019-02-12T03:03:14.729Z,98207.09
2019-02-12T03:05:16.340Z,98203.68
2019-02-12T03:07:17.947Z,98201.98
2019-02-12T03:09:19.570Z,98206.28
2019-02-12T03:11:21.166Z,98202.03
2019-02-12T03:13:22.776Z,98207.57
2019-02-12T03:15:24.388Z,98229.33
2019-02-12T03:17:25.999Z,98225.13
2019-02-12T03:19:27.584Z,98226.45
2019-02-12T03:21:29.195Z,98238.27
2019-02-12T03:23:30.834Z,98231.94
2019-02-12T03:25:32.431Z,98233.31
2019-02-12T03:27:34.021Z,98247.87
2019-02-12T03:29:35.654Z,98241.96
2019-02-12T03:31:37.264Z,98241.91
2019-02-12T03:33:38.907Z,98241.44
2019-02-12T03:35:40.493Z,98246.94
2019-02-12T03:37:42.136Z,98247.77
2019-02-12T03:39:43.765Z,98253.73
2019-02-12T03:41:45.401Z,98238.89
2019-02-12T03:43:47.045Z,98253.22
2019-02-12T03:45:48.652Z,98250.50
2019-02-12T03:47:50.268Z,98239.40
2019-02-12T03:49:51.880Z,98244.70
2019-02-12T03:51:53.478Z,98251.17
2019-02-12T03:53:55.074Z,98251.95
2019-02-12T03:55:56.678Z,98241.20
2019-02-12T03:57:58.277Z,98247.67
2019-02-12T03:59:59.874Z,98246.55
2019-02-12T04:02:02.044Z,98247.28
2019-02-12T04:04:03.653Z,98240.21
2019-02-12T04:06:05.253Z,98246.38
2019-02-12T04:08:06.854Z,98245.01
2019-02-12T04:10:08.459Z,98254.66
2019-02-12T04:12:10.089Z,98255.89
2019-02-12T04:14:11.685Z,98257.09
2019-02-12T04:16:13.286Z,98255.76
2019-02-12T04:18:14.925Z,98227.95
2019-02-12T04:20:16.540Z,98269.20
2019-02-12T04:22:22.435Z,98269.53
2019-02-12T04:24:19.844Z,98272.80
2019-02-12T04:26:21.459Z,98275.77
2019-02-12T04:28:23.652Z,98268.50
2019-02-12T04:30:25.258Z,98263.95
2019-02-12T04:32:26.880Z,98281.27
2019-02-12T04:34:28.524Z,98281.73
2019-02-12T04:36:30.122Z,98286.03
2019-02-12T04:38:31.728Z,98278.42
2019-02-12T04:40:33.369Z,98280.97
2019-02-12T04:42:34.979Z,98283.14
2019-02-12T04:44:36.589Z,98281.05
2019-02-12T04:46:38.228Z,98270.00
2019-02-12T04:48:39.837Z,98276.43
2019-02-12T04:50:41.457Z,98273.91
2019-02-12T04:52:43.053Z,98275.19
2019-02-12T04:54:44.678Z,98270.94
2019-02-12T04:56:46.270Z,98280.77
2019-02-12T04:58:47.866Z,98268.86
2019-02-12T05:00:49.462Z,98270.17
2019-02-12T05:02:51.057Z,98271.87
2019-02-12T05:04:52.696Z,98268.91
2019-02-12T05:06:54.293Z,98257.93
2019-02-12T05:08:57.935Z,98263.94
2019-02-12T05:10:57.602Z,98268.70
2019-02-12T05:12:59.211Z,98261.98
2019-02-12T05:15:00.860Z,98256.11
2019-02-12T05:17:02.459Z,98265.52
2019-02-12T05:19:04.044Z,98276.18
2019-02-12T05:21:05.679Z,98273.67
2019-02-12T05:23:07.277Z,98266.48
2019-02-12T05:25:08.898Z,98294.15
2019-02-12T05:27:10.524Z,98290.29
2019-02-12T05:29:12.118Z,98300.87
2019-02-12T05:31:13.714Z,98300.45
2019-02-12T05:33:15.317Z,98303.38
2019-02-12T05:35:16.904Z,98302.95
2019-02-12T05:37:18.499Z,98302.11
2019-02-12T05:39:20.148Z,98295.23
2019-02-12T05:41:21.746Z,98288.84
2019-02-12T05:43:23.364Z,98291.41
2019-02-12T05:45:24.970Z,98295.19
2019-02-12T05:47:26.576Z,98304.58
2019-02-12T05:49:28.202Z,98306.24
2019-02-12T05:51:29.808Z,98309.25
2019-02-12T05:53:31.407Z,98279.27
2019-02-12T05:55:33.008Z,98309.22
2019-02-12T05:57:34.617Z,98309.22
2019-02-12T05:59:36.258Z,98307.94
2019-02-12T06:01:37.872Z,98320.73
2019-02-12T06:03:39.484Z,98326.26
2019-02-12T06:05:41.095Z,98321.55
2019-02-12T06:07:42.699Z,98330.43
2019-02-12T06:09:44.297Z,98314.70
2019-02-12T06:11:45.927Z,98313.00
2019-02-12T06:13:47.520Z,98322.73
2019-02-12T06:15:49.118Z,98336.73
2019-02-12T06:17:50.724Z,98334.99
2019-02-12T06:19:52.365Z,98338.81
2019-02-12T06:21:53.972Z,98339.20
2019-02-12T06:23:55.585Z,98349.38
2019-02-12T06:25:57.210Z,98346.00
2019-02-12T06:27:58.835Z,98356.17
2019-02-12T06:30:00.450Z,98350.22
2019-02-12T06:32:02.078Z,98356.60
2019-02-12T06:34:03.701Z,98360.43
2019-02-12T06:36:05.303Z,98366.42
2019-02-12T06:38:06.903Z,98376.63
2019-02-12T06:40:08.502Z,98370.67
2019-02-12T06:42:10.098Z,98384.67
2019-02-12T06:44:11.702Z,98379.60
2019-02-12T06:46:13.304Z,98380.88
2019-02-12T06:48:14.903Z,98385.56
2019-02-12T06:50:16.564Z,98391.94
2019-02-12T06:52:18.152Z,98397.50
2019-02-12T06:54:19.763Z,98412.35
2019-02-12T06:56:21.375Z,98408.14
2019-02-12T06:58:22.963Z,98403.92
2019-02-12T07:00:24.592Z,98400.09
2019-02-12T07:02:26.251Z,98407.78
2019-02-12T07:04:27.900Z,98403.53
2019-02-12T07:06:29.522Z,98411.61
2019-02-12T07:08:31.136Z,98414.59
2019-02-12T07:10:32.789Z,98434.58
2019-02-12T07:12:34.400Z,98426.49
2019-02-12T07:14:36.004Z,98435.03
2019-02-12T07:16:37.651Z,98440.10
2019-02-12T07:18:39.264Z,98446.91
2019-02-12T07:20:40.861Z,98447.36
2019-02-12T07:22:42.482Z,98447.79
2019-02-12T07:24:44.082Z,98439.71
2019-02-12T07:26:45.722Z,98447.80
2019-02-12T07:28:47.318Z,98452.05
2019-02-12T07:30:48.932Z,98464.38
2019-02-12T07:32:50.574Z,98448.22
2019-02-12T07:34:52.186Z,98455.02
2019-02-12T07:36:53.781Z,98456.27
2019-02-12T07:38:55.420Z,98462.22
2019-02-12T07:40:57.027Z,98467.31
2019-02-12T07:42:58.658Z,98471.57
2019-02-12T07:45:00.885Z,98468.98
2019-02-12T07:47:02.496Z,98474.94
2019-02-12T07:49:04.136Z,98482.56
2019-02-12T07:51:05.756Z,98467.67
2019-02-12T07:53:07.408Z,98477.00
2019-02-12T07:55:09.025Z,98477.39
2019-02-12T07:57:10.668Z,98476.93
2019-02-12T07:59:12.263Z,98487.14
2019-02-12T08:01:13.861Z,98495.25
2019-02-12T08:03:15.489Z,98494.41
2019-02-12T08:05:17.086Z,98493.55
2019-02-12T08:07:18.695Z,98509.25
2019-02-12T08:09:20.308Z,98512.23
2019-02-12T08:11:21.914Z,98516.48
2019-02-12T08:13:23.521Z,98507.55
2019-02-12T08:15:25.103Z,98510.50
2019-02-12T08:17:26.716Z,98518.15
2019-02-12T08:19:28.309Z,98521.16
2019-02-12T08:21:29.921Z,98520.73
2019-02-12T08:23:40.886Z,98527.15
2019-02-12T08:25:33.208Z,98511.88
2019-02-12T08:27:34.796Z,98529.31
2019-02-12T08:29:36.384Z,98518.67
2019-02-12T08:31:37.992Z,98523.78
2019-02-12T08:33:39.613Z,98530.19
2019-02-12T08:35:41.218Z,98547.59
2019-02-12T08:37:42.832Z,98539.55
2019-02-12T08:39:44.460Z,98538.27
2019-02-12T08:41:46.062Z,98546.78
2019-02-12T08:43:47.666Z,98550.15
2019-02-12T08:45:49.300Z,98544.65
2019-02-12T08:47:50.916Z,98544.62
2019-02-12T08:49:52.564Z,98541.67
2019-02-12T08:51:54.191Z,98538.66
2019-02-12T08:53:55.794Z,98548.41
2019-02-12T08:55:57.418Z,98547.96
2019-02-12T08:57:59.018Z,98554.77
2019-02-12T09:00:03.474Z,98542.43
2019-02-12T09:02:02.323Z,98548.38
2019-02-12T09:04:03.912Z,98544.55
2019-02-12T09:06:05.550Z,98556.47
2019-02-12T09:08:07.190Z,98552.21
2019-02-12T09:10:08.786Z,98555.98
2019-02-12T09:12:10.397Z,98558.00
2019-02-12T09:14:12.008Z,98563.37
2019-02-12T09:16:13.619Z,98575.22
2019-02-12T09:18:15.218Z,98581.98
2019-02-12T09:20:16.813Z,98573.13
2019-02-12T09:22:18.449Z,98573.91
2019-02-12T09:24:20.058Z,98577.34
2019-02-12T09:26:21.659Z,98591.32
2019-02-12T09:28:23.308Z,98587.84
2019-02-12T09:30:24.906Z,98596.81
2019-02-12T09:32:26.511Z,98596.89
2019-02-12T09:34:28.138Z,98594.33
2019-02-12T09:36:29.736Z,98599.97
2019-02-12T09:38:31.333Z,98608.51
2019-02-12T09:40:32.924Z,98614.07
2019-02-12T09:42:34.522Z,98616.59
2019-02-12T09:44:36.117Z,98621.30
2019-02-12T09:46:37.734Z,98615.34
2019-02-12T09:48:39.344Z,98614.56
2019-02-12T09:50:41.008Z,98622.64
2019-02-12T09:52:42.617Z,98613.70
2019-02-12T09:54:44.262Z,98628.63
2019-02-12T09:56:45.857Z,98618.88
2019-02-12T09:58:47.458Z,98617.66
2019-02-12T10:00:49.072Z,98619.39
2019-02-12T10:02:50.718Z,98622.79
2019-02-12T10:04:52.327Z,98622.39
2019-02-12T10:06:54.648Z,98637.31
2019-02-12T10:08:56.289Z,98668.78
2019-02-12T10:10:57.874Z,98662.86
2019-02-12T10:12:59.470Z,98657.75
2019-02-12T10:15:01.092Z,98659.05
2019-02-12T10:17:02.706Z,98655.23
2019-02-12T10:19:04.470Z,98658.20
2019-02-12T10:21:06.071Z,98665.86
2019-02-12T10:23:07.707Z,98649.34
2019-02-12T10:25:09.292Z,98645.55
2019-02-12T10:27:10.896Z,98674.74
2019-02-12T10:29:12.496Z,98667.51
2019-02-12T10:31:14.129Z,98666.23
2019-02-12T10:33:16.078Z,98668.81
2019-02-12T10:35:17.431Z,98672.66
2019-02-12T10:37:19.026Z,98679.47
2019-02-12T10:39:20.670Z,98671.81
2019-02-12T10:41:22.262Z,98668.44
2019-02-12T10:43:23.900Z,98672.69
2019-02-12T10:45:25.915Z,98675.67
2019-02-12T10:47:27.192Z,98672.23
2019-02-12T10:49:28.814Z,98671.81
2019-02-12T10:51:30.427Z,98674.77
2019-02-12T10:53:32.063Z,98680.30
2019-02-12T10:55:33.681Z,98683.25
2019-02-12T10:57:35.292Z,98690.45
2019-02-12T10:59:36.889Z,98688.30
2019-02-12T11:01:38.491Z,98684.84
2019-02-12T11:03:40.085Z,98688.59
2019-02-12T11:05:41.709Z,98692.31
2019-02-12T11:07:43.320Z,98688.39
2019-02-12T11:09:44.935Z,98683.65
2019-02-12T11:11:46.541Z,98676.31
2019-02-12T11:13:48.143Z,98672.91
2019-02-12T11:15:49.765Z,98679.23
2019-02-12T11:17:51.362Z,98680.91
2019-02-12T11:19:52.982Z,98648.38
2019-02-12T11:21:54.581Z,98684.86
2019-02-12T11:23:56.228Z,98686.53
2019-02-12T11:25:57.827Z,98686.90
2019-02-12T11:27:59.469Z,98679.20
2019-02-12T11:30:01.061Z,98681.81
2019-02-12T11:32:02.657Z,98662.45
2019-02-12T11:34:04.255Z,98680.94
2019-02-12T11:36:05.898Z,98689.81
2019-02-12T11:38:07.480Z,98693.64
2019-02-12T11:40:09.060Z,98699.61
2019-02-12T11:42:10.667Z,98695.31
2019-02-12T11:44:12.262Z,98690.66
2019-02-12T11:46:13.867Z,98698.75
2019-02-12T11:48:15.516Z,98715.75
2019-02-12T11:50:17.146Z,98702.95
2019-02-12T11:52:18.756Z,98696.13
2019-02-12T11:54:20.362Z,98707.70
2019-02-12T11:56:21.963Z,98706.42
2019-02-12T11:58:23.568Z,98702.65
2019-02-12T12:00:25.204Z,98709.06
2019-02-12T12:02:26.823Z,98701.86
2019-02-12T12:04:28.593Z,98704.47
2019-02-12T12:06:30.313Z,98708.75
2019-02-12T12:08:31.936Z,98720.28
2019-02-12T12:10:33.580Z,98731.83
2019-02-12T12:12:35.196Z,98726.35
2019-02-12T12:14:36.793Z,98725.50
2019-02-12T12:16:38.413Z,98709.03
2019-02-12T12:18:40.020Z,98729.81
2019-02-12T12:20:41.633Z,98734.94
2019-02-12T12:22:43.230Z,98730.69
2019-02-12T12:24:51.437Z,98719.22
2019-02-12T12:26:46.524Z,98725.63
2019-02-12T12:28:48.131Z,98720.13
2019-02-12T12:30:49.751Z,98721.37
2019-02-12T12:32:51.393Z,98720.55
2019-02-12T12:34:53.011Z,98727.33
2019-02-12T12:36:54.672Z,98725.63
2019-02-12T12:38:56.284Z,98726.94
2019-02-12T12:40:57.886Z,98727.36
2019-02-12T12:42:59.632Z,98731.19
2019-02-12T12:45:01.416Z,98730.77
2019-02-12T12:47:03.023Z,98735.02
2019-02-12T12:49:04.686Z,98735.02
2019-02-12T12:51:06.284Z,98735.44
2019-02-12T12:53:07.879Z,98712.57
2019-02-12T12:55:09.487Z,98735.02
2019-02-12T12:57:11.071Z,98738.40
2019-02-12T12:59:12.655Z,98742.23
2019-02-12T13:01:14.256Z,98743.50
2019-02-12T13:03:15.904Z,98745.63
2019-02-12T13:05:17.501Z,98747.30
2019-02-12T13:07:19.104Z,98752.84
2019-02-12T13:09:20.711Z,98751.98
2019-02-12T13:11:22.316Z,98767.75
2019-02-12T13:13:23.950Z,98762.25
2019-02-12T13:15:25.581Z,98766.50
2019-02-12T13:17:27.168Z,98774.58
2019-02-12T13:19:28.780Z,98781.44
2019-02-12T13:21:30.405Z,98787.83
2019-02-12T13:23:32.048Z,98784.93
2019-02-12T13:25:33.875Z,98786.20
2019-02-12T13:27:35.592Z,98790.92
2019-02-12T13:29:37.202Z,98785.88
2019-02-12T13:31:38.825Z,98785.03
2019-02-12T13:33:40.441Z,98791.85
2019-02-12T13:35:42.056Z,98797.39
2019-02-12T13:37:43.679Z,98795.69
2019-02-12T13:39:45.270Z,98795.64
2019-02-12T13:41:46.865Z,98798.66
2019-02-12T13:43:48.472Z,98799.47
2019-02-12T13:45:50.104Z,98800.30
2019-02-12T13:47:51.700Z,98799.44
2019-02-12T13:49:53.293Z,98800.26
2019-02-12T13:51:54.937Z,98801.08
2019-02-12T13:53:56.552Z,98804.91
2019-02-12T13:55:58.184Z,98810.45
2019-02-12T13:57:59.796Z,98813.00
2019-02-12T14:00:01.391Z,98816.83
2019-02-12T14:02:03.442Z,98814.23
2019-02-12T14:04:04.707Z,98813.41
2019-02-12T14:06:06.496Z,98820.21
2019-02-12T14:08:08.143Z,98820.63
2019-02-12T14:10:09.773Z,98821.48
2019-02-12T14:12:11.365Z,98819.42
2019-02-12T14:14:12.958Z,98834.25
2019-02-12T14:16:14.584Z,98835.94
2019-02-12T14:18:16.182Z,98839.80
2019-02-12T14:20:17.777Z,98838.09
2019-02-12T14:22:19.386Z,98837.66
2019-02-12T14:24:20.991Z,98835.96
2019-02-12T14:26:22.586Z,98839.81
2019-02-12T14:28:24.262Z,98830.88
2019-02-12T14:30:25.869Z,98839.43
2019-02-12T14:32:27.485Z,98847.04
2019-02-12T14:34:29.082Z,98843.64
2019-02-12T14:36:30.680Z,98824.59
2019-02-12T14:38:32.264Z,98843.23
2019-02-12T14:40:33.876Z,98847.46
2019-02-12T14:42:35.502Z,98853.00
2019-02-12T14:44:37.121Z,98847.02
2019-02-12T14:46:38.894Z,98857.26
2019-02-12T14:48:40.631Z,98853.00
2019-02-12T14:50:42.234Z,98853.42
2019-02-12T14:52:43.826Z,98858.55
2019-02-12T14:54:45.412Z,98867.03
2019-02-12T14:56:47.024Z,98847.96
2019-02-12T14:58:48.672Z,98861.10
2019-02-12T15:00:50.264Z,98870.42
2019-02-12T15:02:51.848Z,98870.88
2019-02-12T15:05:00.421Z,98871.30
2019-02-12T15:06:55.204Z,98868.75
2019-02-12T15:08:56.829Z,98875.16
2019-02-12T15:10:58.551Z,98872.17
2019-02-12T15:13:00.181Z,98870.47
2019-02-12T15:15:01.774Z,98876.88
2019-02-12T15:17:03.368Z,98871.34
2019-02-12T15:19:05.021Z,98879.82
2019-02-12T15:21:06.617Z,98884.50
2019-02-12T15:23:08.210Z,98882.82
2019-02-12T15:25:09.855Z,98877.71
2019-02-12T15:27:11.454Z,98880.28
2019-02-12T15:29:13.064Z,98883.25
2019-02-12T15:31:14.693Z,98884.50
2019-02-12T15:33:16.294Z,98887.05
2019-02-12T15:35:18.535Z,98888.34
2019-02-12T15:37:20.135Z,98887.08
2019-02-12T15:39:21.722Z,98893.30
2019-02-12T15:41:23.319Z,98894.24
2019-02-12T15:43:24.941Z,98896.77
2019-02-12T15:45:26.629Z,98893.83
2019-02-12T15:47:28.272Z,98901.89
2019-02-12T15:49:29.884Z,98904.39
2019-02-12T15:51:31.486Z,98909.25
2019-02-12T15:53:33.082Z,98900.44
2019-02-12T15:55:41.992Z,98909.58
2019-02-12T15:57:36.387Z,98907.30
2019-02-12T15:59:37.980Z,98911.53
2019-02-12T16:01:39.608Z,98908.05
2019-02-12T16:03:41.242Z,98896.75
2019-02-12T16:05:42.893Z,98919.70
2019-02-12T16:07:45.228Z,98915.45
2019-02-12T16:09:46.139Z,98921.84
2019-02-12T16:11:47.747Z,98925.23
2019-02-12T16:13:49.345Z,98933.25
2019-02-12T16:15:50.952Z,98937.11
2019-02-12T16:17:52.569Z,98942.98
2019-02-12T16:19:54.470Z,98939.04
2019-02-12T16:21:56.090Z,98941.53
2019-02-12T16:23:57.744Z,98940.02
2019-02-12T16:25:59.743Z,98946.02
2019-02-12T16:28:01.021Z,98945.30
2019-02-12T16:30:02.613Z,98945.92
2019-02-12T16:32:04.225Z,98954.11
2019-02-12T16:34:05.821Z,98957.31
2019-02-12T16:36:07.414Z,98960.01
2019-02-12T16:38:09.096Z,98964.03
2019-02-12T16:40:10.689Z,98963.98
2019-02-12T16:42:12.300Z,98966.33
2019-02-12T16:44:13.894Z,98966.77
2019-02-12T16:46:15.488Z,98969.07
2019-02-12T16:48:17.091Z,98962.58
2019-02-12T16:50:18.730Z,98976.55
2019-02-12T16:52:21.120Z,98979.31
2019-02-12T16:54:21.996Z,98989.57
2019-02-12T16:56:23.584Z,98989.91
2019-02-12T16:58:25.171Z,98992.48
2019-02-12T17:00:26.784Z,98963.34
2019-02-12T17:02:28.429Z,99005.89
2019-02-12T17:04:30.049Z,99007.95
2019-02-12T17:06:31.673Z,99005.57
2019-02-12T17:08:34.858Z,99010.42
2019-02-12T17:10:34.975Z,99011.66
2019-02-12T17:12:36.570Z,99016.22
2019-02-12T17:14:38.926Z,99020.96
2019-02-12T17:16:40.539Z,99021.44
2019-02-12T17:18:42.150Z,99024.61
2019-02-12T17:20:43.728Z,99021.19
2019-02-12T17:22:45.340Z,99025.23
2019-02-12T17:24:46.937Z,99025.19
2019-02-12T17:26:48.542Z,99028.37
2019-02-12T17:28:50.161Z,99028.10
2019-02-12T17:30:51.792Z,99031.84
2019-02-12T17:32:53.480Z,99028.55
2019-02-12T17:35:01.166Z,99024.90
2019-02-12T17:36:56.943Z,99032.39
2019-02-12T17:38:58.549Z,99030.63
2019-02-12T17:41:00.189Z,99035.69
2019-02-12T17:43:01.787Z,99038.16
2019-02-12T17:45:03.388Z,99037.30
2019-02-12T17:47:04.971Z,99038.44
2019-02-12T17:49:06.571Z,99039.34
2019-02-12T17:51:08.209Z,99036.20
2019-02-12T17:53:09.811Z,99043.84
2019-02-12T17:55:11.454Z,99034.69
2019-02-12T17:57:13.068Z,99050.38
2019-02-12T17:59:14.666Z,99045.91
2019-02-12T18:01:16.280Z,99053.06
2019-02-12T18:03:17.882Z,99049.30
2019-02-12T18:05:19.524Z,99059.08
2019-02-12T18:07:21.116Z,99061.22
2019-02-12T18:09:22.715Z,99061.27
2019-02-12T18:11:24.318Z,99069.47
2019-02-12T18:13:25.907Z,99063.44
2019-02-12T18:15:27.541Z,99067.80
2019-02-12T18:17:29.167Z,99074.09
2019-02-12T18:19:30.748Z,99069.85
2019-02-12T18:21:32.370Z,99079.66
2019-02-12T18:23:34.024Z,99081.52
2019-02-12T18:25:35.637Z,99083.97
2019-02-12T18:27:37.234Z,99091.56
2019-02-12T18:29:38.825Z,99092.27
2019-02-12T18:31:40.469Z,99090.12
2019-02-12T18:33:42.071Z,99089.77
2019-02-12T18:35:43.652Z,99099.36
2019-02-12T18:37:45.259Z,99098.80
2019-02-12T18:39:46.844Z,99098.37
2019-02-12T18:41:48.441Z,99096.61
2019-02-12T18:43:50.044Z,99100.28
2019-02-12T18:45:51.700Z,99096.73
2019-02-12T18:47:53.328Z,99097.11
2019-02-12T18:49:54.923Z,99099.30
2019-02-12T18:51:56.549Z,99101.95
2019-02-12T18:53:58.155Z,99100.42
2019-02-12T18:55:59.754Z,99102.50
2019-02-12T18:58:01.446Z,99102.41
2019-02-12T19:00:03.753Z,99111.41
2019-02-12T19:02:05.522Z,99106.75
2019-02-12T19:04:07.182Z,99104.83
2019-02-12T19:06:08.792Z,99106.88
2019-02-12T19:08:10.418Z,99109.91
2019-02-12T19:10:12.014Z,99109.56
2019-02-12T19:12:13.662Z,99105.81
2019-02-12T19:14:15.258Z,99111.28
2019-02-12T19:16:16.839Z,99115.09
2019-02-12T19:18:18.462Z,99111.15
2019-02-12T19:20:20.168Z,99115.17
2019-02-12T19:22:21.762Z,99121.66
2019-02-12T19:24:23.376Z,99121.73
2019-02-12T19:26:24.988Z,99124.68
2019-02-12T19:28:26.585Z,99117.84
2019-02-12T19:30:28.244Z,99123.44
2019-02-12T19:32:29.842Z,99117.95
2019-02-12T19:34:31.451Z,99125.47
2019-02-12T19:36:33.065Z,99132.42
2019-02-12T19:38:34.689Z,99129.25
2019-02-12T19:40:36.348Z,99129.42
2019-02-12T19:42:38.611Z,99124.91
2019-02-12T19:44:40.215Z,99125.72
2019-02-12T19:46:41.826Z,99122.69
2019-02-12T19:48:43.415Z,99130.64
2019-02-12T19:50:45.010Z,99134.11
2019-02-12T19:52:46.643Z,99135.06
2019-02-12T19:54:49.073Z,99134.97
2019-02-12T19:56:57.963Z,99137.20
2019-02-12T19:58:52.379Z,99136.72
2019-02-12T20:00:53.986Z,99144.97
2019-02-12T20:02:55.599Z,99148.64
2019-02-12T20:04:57.229Z,99153.02
2019-02-12T20:06:58.829Z,99149.43
2019-02-12T20:09:00.429Z,99147.72
2019-02-12T20:11:02.026Z,99157.67
2019-02-12T20:13:04.329Z,99155.56
2019-02-12T20:15:05.925Z,99155.73
2019-02-12T20:17:07.551Z,99160.69
2019-02-12T20:19:09.168Z,99159.98
2019-02-12T20:21:10.773Z,99158.61
2019-02-12T20:23:12.888Z,99158.82
2019-02-12T20:25:14.485Z,99153.98
2019-02-12T20:27:17.884Z,99159.41
2019-02-12T20:29:17.743Z,99149.94
2019-02-12T20:31:19.345Z,99152.81
2019-02-12T20:33:20.966Z,99148.62
2019-02-12T20:35:22.601Z,99154.95
2019-02-12T20:37:24.198Z,99152.08
2019-02-12T20:39:25.798Z,99149.47
2019-02-12T20:41:27.381Z,99151.95
2019-02-12T20:43:28.995Z,99147.78
2019-02-12T20:45:30.594Z,99152.58
2019-02-12T20:47:32.276Z,99160.18
2019-02-12T20:49:33.916Z,99161.21
2019-02-12T20:51:35.559Z,99151.03
2019-02-12T20:53:37.201Z,99152.80
2019-02-12T20:55:38.804Z,99159.67
2019-02-12T20:57:40.401Z,99160.10
2019-02-12T20:59:41.986Z,99164.80
2019-02-12T21:01:43.606Z,99160.56
2019-02-12T21:03:45.850Z,99171.70
2019-02-12T21:05:47.474Z,99161.02
2019-02-12T21:07:49.554Z,99163.58
2019-02-12T21:09:51.178Z,99171.30
2019-02-12T21:11:52.801Z,99169.63
2019-02-12T21:13:54.463Z,99171.03
2019-02-12T21:15:56.089Z,99171.30
2019-02-12T21:17:57.882Z,99161.20
2019-02-12T21:19:59.510Z,99161.16
2019-02-12T21:22:01.395Z,99168.36
2019-02-12T21:24:03.081Z,99170.30
2019-02-12T21:26:04.719Z,99159.62
2019-02-12T21:28:06.374Z,99168.06
2019-02-12T21:30:08.009Z,99172.67
2019-02-12T21:32:09.634Z,99166.28
2019-02-12T21:34:11.263Z,99169.66
2019-02-12T21:36:12.885Z,99170.45
2019-02-12T21:38:14.505Z,99168.31
2019-02-12T21:40:16.125Z,99169.15
2019-02-12T21:42:17.759Z,99168.30
2019-02-12T21:44:19.414Z,99167.85
2019-02-12T21:46:21.037Z,99175.09
2019-02-12T21:48:22.686Z,99173.41
2019-02-12T21:50:24.310Z,99174.24
2019-02-12T21:52:25.973Z,99179.36
2019-02-12T21:54:27.598Z,99178.08
2019-02-12T21:56:29.258Z,99178.08
2019-02-12T21:58:30.924Z,99172.52
2019-02-12T22:00:32.602Z,99175.95
2019-02-12T22:02:34.282Z,99176.81
2019-02-12T22:04:35.918Z,99182.77
2019-02-12T22:06:37.542Z,99176.41
2019-02-12T22:08:39.201Z,99179.81
2019-02-12T22:10:46.202Z,99179.84
2019-02-12T22:12:42.526Z,99179.41
2019-02-12T22:14:44.178Z,99182.38
2019-02-12T22:16:45.838Z,99180.67
2019-02-12T22:18:47.469Z,99181.95
2019-02-12T22:20:49.103Z,99187.05
2019-02-12T22:22:50.726Z,99190.89
2019-02-12T22:24:52.326Z,99196.41
2019-02-12T22:26:53.928Z,99192.99
2019-02-12T22:28:55.525Z,99188.72
2019-02-12T22:30:57.152Z,99189.55
2019-02-12T22:32:58.726Z,99197.22
2019-02-12T22:35:00.345Z,99194.23
2019-02-12T22:37:01.937Z,99197.64
2019-02-12T22:39:03.562Z,99199.36
2019-02-12T22:41:05.266Z,99198.50
2019-02-12T22:43:06.861Z,99202.34
2019-02-12T22:45:08.491Z,99200.64
2019-02-12T22:47:10.072Z,99198.49
2019-02-12T22:49:11.671Z,99195.14
2019-02-12T22:51:13.242Z,99196.02
2019-02-12T22:53:14.811Z,99208.77
2019-02-12T22:55:16.413Z,99205.38
2019-02-12T22:57:18.022Z,99208.81
2019-02-12T22:59:19.598Z,99205.02
2019-02-12T23:01:21.174Z,99209.25
2019-02-12T23:03:22.870Z,99213.94
2019-02-12T23:05:24.461Z,99208.85
2019-02-12T23:07:26.038Z,99207.16
2019-02-12T23:09:27.632Z,99202.02
2019-02-12T23:11:29.214Z,99203.31
2019-02-12T23:13:30.855Z,99202.06
2019-02-12T23:15:32.434Z,99207.62
2019-02-12T23:17:34.038Z,99207.21
2019-02-12T23:19:35.638Z,99202.52
2019-02-12T23:21:37.751Z,99206.80
2019-02-12T23:23:39.330Z,99209.78
2019-02-12T23:25:40.906Z,99215.33
2019-02-12T23:27:42.542Z,99215.34
2019-02-12T23:29:44.146Z,99212.34
2019-02-12T23:31:45.793Z,99216.60
2019-02-12T23:33:47.358Z,99215.33
2019-02-12T23:35:48.953Z,99215.75
2019-02-12T23:37:50.586Z,99211.05
2019-02-12T23:39:52.165Z,99211.89
2019-02-12T23:41:53.856Z,99209.34
2019-02-12T23:43:55.451Z,99208.48
2019-02-12T23:45:57.396Z,99210.60
2019-02-12T23:47:58.726Z,99205.05